Time;durP1;ratioP1;P1;durP2;ratioP2;P2;SDS_P1;SDS_P2;PMS_P1;PMS_P2;Temp;Humidity;BMP_temperature;BMP_pressure;BME280_temperature;BME280_humidity;BME280_pressure;Samples;Min_cycle;Max_cycle;Signal;HPM_P1;HPM_P2
2021/10/16 00:01:20;;;;;;;6.50;4.10;;;7.50;99.90;;;8.34;100.00;98601.84;5077542;28;20511;-80
2021/10/16 00:03:50;;;;;;;7.70;4.60;;;7.30;99.90;;;8.38;100.00;98599.72;5079652;28;20459;-80
2021/10/16 00:06:18;;;;;;;9.90;5.20;;;7.40;99.90;;;8.39;100.00;98599.59;5083333;28;20459;-80
2021/10/16 00:08:47;;;;;;;10.27;4.50;;;7.40;99.90;;;8.40;100.00;98597.81;5075763;28;20451;-80
2021/10/16 00:11:17;;;;;;;12.60;4.50;;;7.40;99.90;;;8.37;100.00;98596.31;5080111;28;20818;-80
2021/10/16 00:13:46;;;;;;;14.80;4.90;;;7.40;99.90;;;8.35;100.00;98603.47;5082009;28;20451;-80
2021/10/16 00:16:16;;;;;;;8.77;5.17;;;7.40;99.90;;;8.31;100.00;98591.75;5077059;28;20524;-80
2021/10/16 00:18:44;;;;;;;5.63;4.33;;;7.30;99.90;;;8.14;100.00;98597.03;5078022;28;20491;-79
2021/10/16 00:21:13;;;;;;;5.27;4.20;;;7.10;99.90;;;8.10;100.00;98604.34;5084573;28;20467;-79
2021/10/16 00:23:42;;;;;;;10.67;5.20;;;7.00;99.90;;;8.18;100.00;98604.38;5084511;28;20459;-79
2021/10/16 00:26:10;;;;;;;9.80;5.63;;;7.20;99.90;;;8.07;100.00;98609.88;5081532;28;20463;-80
2021/10/16 00:28:40;;;;;;;6.13;4.37;;;7.10;99.90;;;7.94;100.00;98606.88;5083584;28;20459;-80
2021/10/16 00:31:09;;;;;;;12.47;4.67;;;6.90;99.90;;;7.90;100.00;98609.00;5084738;28;20471;-80
2021/10/16 00:33:38;;;;;;;9.10;4.13;;;6.90;99.90;;;7.95;100.00;98606.72;5082429;28;21017;-80
2021/10/16 00:36:06;;;;;;;8.53;4.77;;;6.90;99.90;;;7.97;100.00;98604.78;5077554;28;20552;-79
2021/10/16 00:38:35;;;;;;;7.47;4.10;;;7.00;99.90;;;7.90;100.00;98610.78;5082446;28;20501;-80
2021/10/16 00:41:05;;;;;;;9.40;4.07;;;6.90;99.90;;;7.89;100.00;98603.94;5080962;28;20463;-80
2021/10/16 00:43:33;;;;;;;6.63;4.77;;;6.90;99.90;;;7.89;100.00;98612.56;5080782;28;20460;-79
2021/10/16 00:46:03;;;;;;;7.60;4.23;;;6.90;99.90;;;7.90;100.00;98605.56;5083081;28;20463;-80
2021/10/16 00:48:32;;;;;;;4.93;3.60;;;7.00;99.90;;;7.86;100.00;98599.03;5084347;28;20495;-80
2021/10/16 00:51:01;;;;;;;3.90;3.50;;;7.10;99.90;;;7.79;100.00;98611.03;5077479;28;20579;-80
2021/10/16 00:53:30;;;;;;;5.00;3.80;;;6.80;99.90;;;7.79;100.00;98609.25;5083353;28;20460;-80
2021/10/16 00:55:59;;;;;;;8.57;5.20;;;6.90;99.90;;;7.80;100.00;98610.06;5085191;28;20836;-80
2021/10/16 00:58:28;;;;;;;6.60;4.60;;;6.90;99.90;;;7.81;100.00;98609.91;5084781;28;20459;-80
2021/10/16 01:00:57;;;;;;;6.93;4.53;;;6.90;99.90;;;7.80;100.00;98608.28;5085073;28;20455;-80
2021/10/16 01:03:27;;;;;;;10.67;4.50;;;6.90;99.90;;;7.75;100.00;98607.94;5083265;28;21032;-80
2021/10/16 01:05:55;;;;;;;9.47;4.20;;;6.80;99.90;;;7.73;100.00;98611.66;5081141;28;20983;-80
2021/10/16 01:08:24;;;;;;;6.67;3.37;;;6.70;99.90;;;7.68;100.00;98606.09;5081061;28;20535;-80
2021/10/16 01:10:53;;;;;;;14.03;3.70;;;6.60;99.90;;;7.62;100.00;98604.13;5077886;28;20490;-80
2021/10/16 01:13:22;;;;;;;6.63;3.73;;;6.60;99.90;;;7.59;100.00;98605.25;5082755;28;20554;-79
2021/10/16 01:15:53;;;;;;;6.17;4.10;;;6.60;99.90;;;7.65;100.00;98603.81;5083346;28;20545;-80
2021/10/16 01:18:23;;;;;;;6.03;4.17;;;6.60;99.90;;;7.66;100.00;98597.63;5078632;28;20459;-79
2021/10/16 01:21:03;;;;;;;7.83;3.17;;;6.70;99.90;;;7.67;100.00;98596.69;5084504;28;20510;-80
2021/10/16 01:23:34;;;;;;;5.13;4.13;;;6.70;99.90;;;7.70;100.00;98601.56;5076271;28;21105;-80
2021/10/16 01:26:04;;;;;;;5.90;4.50;;;6.70;99.90;;;7.73;100.00;98596.03;5080321;28;20459;-80
2021/10/16 01:28:34;;;;;;;6.37;3.60;;;6.80;99.90;;;7.73;100.00;98601.25;5083174;28;20544;-80
2021/10/16 01:31:03;;;;;;;3.43;3.10;;;6.90;99.90;;;7.68;100.00;98593.09;5080635;28;20930;-80
2021/10/16 01:33:31;;;;;;;4.73;3.13;;;6.90;99.90;;;7.68;100.00;98593.91;5082570;28;20552;-80
2021/10/16 01:36:05;;;;;;;4.70;3.27;;;6.90;99.90;;;7.70;100.00;98591.97;5081518;28;21036;-80
2021/10/16 01:38:34;;;;;;;5.53;3.77;;;6.80;99.90;;;7.68;100.00;98587.88;5081256;28;20500;-79
2021/10/16 01:41:03;;;;;;;5.50;3.60;;;6.90;99.90;;;7.70;100.00;98588.56;5078102;28;20452;-80
2021/10/16 01:43:32;;;;;;;6.90;3.90;;;6.90;99.90;;;7.69;100.00;98585.13;5077991;28;20904;-79
2021/10/16 01:46:00;;;;;;;6.13;3.40;;;6.90;99.90;;;7.66;100.00;98579.41;5078420;28;20554;-80
2021/10/16 01:48:29;;;;;;;4.47;3.27;;;6.80;99.90;;;7.64;100.00;98578.75;5084602;28;20944;-80
2021/10/16 01:50:58;;;;;;;4.03;2.67;;;6.70;99.90;;;7.59;100.00;98581.81;5079163;28;20518;-79
2021/10/16 01:53:28;;;;;;;4.90;2.93;;;6.60;99.90;;;7.57;100.00;98576.75;5075652;28;20517;-79
2021/10/16 01:55:56;;;;;;;6.03;3.00;;;6.70;99.90;;;7.57;100.00;98583.75;5081838;28;20536;-79
2021/10/16 01:58:24;;;;;;;4.13;3.00;;;6.60;99.90;;;7.52;100.00;98584.25;5081243;28;20463;-80
2021/10/16 02:00:53;;;;;;;3.77;3.37;;;6.60;99.90;;;7.47;100.00;98586.47;5077578;28;20495;-80
2021/10/16 02:03:22;;;;;;;13.80;2.97;;;6.50;99.90;;;7.43;100.00;98585.13;5086258;28;20452;-80
2021/10/16 02:05:50;;;;;;;7.40;3.50;;;6.50;99.90;;;7.38;100.00;98586.59;5080105;28;20493;-81
2021/10/16 02:08:19;;;;;;;4.43;3.10;;;6.40;99.90;;;7.23;100.00;98582.91;5080822;28;20520;-80
2021/10/16 02:10:49;;;;;;;3.73;2.67;;;6.20;99.90;;;7.21;100.00;98579.66;5081409;28;20468;-80
2021/10/16 02:13:17;;;;;;;3.27;2.70;;;6.20;99.90;;;7.22;100.00;98578.69;5079394;28;20530;-80
2021/10/16 02:15:47;;;;;;;7.37;4.37;;;6.30;99.90;;;7.23;100.00;98583.72;5077794;28;20479;-80
2021/10/16 02:18:15;;;;;;;11.37;3.87;;;6.40;99.90;;;7.22;100.00;98573.50;5081818;28;20521;-80
2021/10/16 02:20:43;;;;;;;6.70;4.50;;;6.40;99.90;;;7.23;100.00;98575.91;5083016;28;21084;-80
2021/10/16 02:23:12;;;;;;;9.60;4.03;;;6.40;99.90;;;7.18;100.00;98572.97;5081478;28;20544;-79
2021/10/16 02:25:41;;;;;;;5.77;3.43;;;6.30;99.90;;;7.22;100.00;98576.09;5079114;28;20504;-80
2021/10/16 02:28:11;;;;;;;5.97;3.83;;;6.30;99.90;;;7.22;100.00;98576.09;5078906;28;20871;-79
2021/10/16 02:30:39;;;;;;;5.93;4.00;;;6.30;99.90;;;7.21;100.00;98577.88;5078961;28;20529;-80
2021/10/16 02:33:08;;;;;;;7.77;3.87;;;6.40;99.90;;;7.23;100.00;98580.28;5079766;28;20460;-79
2021/10/16 02:35:36;;;;;;;8.20;5.00;;;6.40;99.90;;;7.23;100.00;98577.69;5079689;28;20564;-79
2021/10/16 02:38:05;;;;;;;10.03;5.63;;;6.40;99.90;;;7.14;100.00;98584.63;5078722;28;20657;-79
2021/10/16 02:40:34;;;;;;;5.80;3.90;;;6.30;99.90;;;7.14;100.00;98584.63;5084303;28;21121;-80
2021/10/16 02:43:04;;;;;;;8.83;5.27;;;6.30;99.90;;;7.11;100.00;98584.13;5078890;28;20460;-80
2021/10/16 02:45:34;;;;;;;8.60;4.47;;;6.20;99.90;;;7.11;100.00;98584.13;5085326;28;20456;-79
2021/10/16 02:48:03;;;;;;;8.20;3.90;;;6.20;99.90;;;7.06;100.00;98587.19;5076997;28;20963;-79
2021/10/16 02:50:32;;;;;;;6.47;3.60;;;6.20;99.90;;;7.03;100.00;98585.69;5081040;28;20460;-79
2021/10/16 02:53:00;;;;;;;6.33;4.13;;;6.20;99.90;;;7.03;100.00;98587.47;5080090;28;20487;-79
2021/10/16 02:55:29;;;;;;;7.90;4.53;;;6.10;99.90;;;6.83;100.00;98586.84;5080258;28;20887;-79
2021/10/16 02:57:57;;;;;;;6.50;4.30;;;5.90;99.90;;;6.78;100.00;98593.44;5082895;28;20459;-79
2021/10/16 03:00:26;;;;;;;12.00;4.47;;;5.90;99.90;;;6.78;100.00;98596.88;5079333;28;20507;-80
2021/10/16 03:02:59;;;;;;;6.77;4.10;;;5.80;99.90;;;6.82;100.00;98602.56;5083144;28;20508;-79
2021/10/16 03:05:39;;;;;;;6.20;4.30;;;5.90;99.90;;;6.77;100.00;98602.22;5083745;28;21205;-79
2021/10/16 03:08:09;;;;;;;6.23;4.17;;;5.80;99.90;;;6.74;100.00;98600.72;5078132;28;20956;-80
2021/10/16 03:10:43;;;;;;;10.10;4.80;;;5.80;99.90;;;6.50;100.00;98608.28;5083755;28;20481;-80
2021/10/16 03:13:11;;;;;;;5.40;3.80;;;5.40;99.90;;;6.47;100.00;98609.41;5079901;28;20725;-79
2021/10/16 03:15:40;;;;;;;6.43;3.40;;;5.40;99.90;;;6.43;100.00;98615.03;5081868;28;20448;-80
2021/10/16 03:18:10;;;;;;;4.40;3.10;;;5.40;99.90;;;6.15;100.00;98616.84;5081662;28;20467;-80
2021/10/16 03:20:38;;;;;;;5.37;2.93;;;5.10;99.90;;;6.11;100.00;98612.88;5081882;28;20695;-80
2021/10/16 03:23:07;;;;;;;3.50;2.80;;;5.20;99.90;;;6.22;100.00;98611.88;5078011;28;20561;-79
2021/10/16 03:25:36;;;;;;;4.20;2.93;;;5.30;99.90;;;6.24;100.00;98616.00;5079218;28;20516;-79
2021/10/16 03:28:05;;;;;;;4.10;3.17;;;5.40;99.90;;;6.21;100.00;98618.88;5087227;28;20487;-80
2021/10/16 03:30:34;;;;;;;6.30;3.30;;;5.30;99.90;;;6.15;100.00;98616.00;5080534;28;20464;-80
2021/10/16 03:33:02;;;;;;;4.83;2.90;;;5.20;99.90;;;6.16;100.00;98610.69;5075357;28;20521;-80
2021/10/16 03:35:32;;;;;;;4.43;3.10;;;5.20;99.90;;;6.18;100.00;98611.34;5084668;28;20544;-79
2021/10/16 03:38:05;;;;;;;7.13;3.20;;;5.20;99.90;;;6.17;100.00;98614.94;5079729;28;20466;-79
2021/10/16 03:40:34;;;;;;;8.37;3.37;;;5.20;99.90;;;6.06;100.00;98610.75;5074575;28;20481;-79
2021/10/16 03:43:02;;;;;;;3.70;3.20;;;5.20;99.90;;;6.01;100.00;98612.13;5075496;28;20466;-79
2021/10/16 03:45:31;;;;;;;5.27;2.57;;;5.00;99.90;;;5.98;100.00;98615.00;5076990;28;20563;-79
2021/10/16 03:47:59;;;;;;;3.90;2.50;;;5.00;99.90;;;6.05;100.00;98616.06;5071348;28;20554;-79
2021/10/16 03:50:28;;;;;;;3.60;2.80;;;5.10;99.90;;;6.08;100.00;98615.78;5074194;28;20935;-80
2021/10/16 03:52:58;;;;;;;3.13;2.83;;;5.20;99.90;;;5.95;100.00;98610.13;5076237;28;20461;-80
2021/10/16 03:55:26;;;;;;;5.33;2.67;;;5.00;99.90;;;5.98;100.00;98604.63;5079992;28;20490;-80
2021/10/16 03:57:55;;;;;;;4.20;2.90;;;5.10;99.90;;;6.03;100.00;98607.63;5084778;28;20489;-79
2021/10/16 04:00:23;;;;;;;3.67;2.70;;;5.10;99.90;;;6.05;100.00;98606.50;5077584;28;20461;-79
2021/10/16 04:02:54;;;;;;;3.53;2.40;;;5.10;99.90;;;6.03;100.00;98611.03;5083443;28;20449;-79
2021/10/16 04:05:23;;;;;;;4.07;3.03;;;5.10;99.90;;;5.91;100.00;98604.41;5086288;28;20451;-80
2021/10/16 04:07:51;;;;;;;3.67;2.40;;;5.00;99.90;;;5.92;100.00;98600.03;5089955;28;20510;-80
2021/10/16 04:10:21;;;;;;;5.13;2.47;;;5.00;99.90;;;5.85;100.00;98604.94;5079720;28;20905;-79
2021/10/16 04:12:50;;;;;;;3.03;2.37;;;4.90;99.90;;;5.86;100.00;98601.44;5076628;28;20482;-77
2021/10/16 04:15:18;;;;;;;4.30;2.70;;;4.90;99.90;;;5.72;100.00;98603.63;5081147;28;20475;-76
2021/10/16 04:17:47;;;;;;;3.03;2.73;;;4.70;99.90;;;5.81;100.00;98608.78;5083081;28;20689;-76
2021/10/16 04:20:15;;;;;;;2.80;2.47;;;4.80;99.90;;;5.85;100.00;98612.72;5085767;28;20446;-76
2021/10/16 04:22:43;;;;;;;3.10;2.03;;;4.90;99.90;;;5.71;100.00;98607.19;5085216;28;20509;-76
2021/10/16 04:25:13;;;;;;;3.50;2.80;;;4.70;99.90;;;5.66;100.00;98602.41;5090723;28;20484;-76
2021/10/16 04:27:43;;;;;;;2.93;2.63;;;4.70;99.90;;;5.62;100.00;98602.84;5084309;28;20447;-76
2021/10/16 04:30:12;;;;;;;3.70;2.80;;;4.60;99.90;;;5.71;100.00;98610.59;5079898;28;20858;-77
2021/10/16 04:32:41;;;;;;;3.17;2.73;;;4.70;99.90;;;5.80;100.00;98608.91;5080993;28;20489;-75
2021/10/16 04:35:11;;;;;;;4.67;2.47;;;4.90;99.90;;;5.90;100.00;98612.34;5083605;28;20518;-76
2021/10/16 04:37:39;;;;;;;4.60;2.40;;;5.00;99.90;;;5.88;100.00;98614.25;5089779;28;20499;-78
2021/10/16 04:40:13;;;;;;;4.10;2.60;;;5.00;99.90;;;5.77;100.00;98616.97;5083278;28;20946;-78
2021/10/16 04:42:44;;;;;;;3.73;2.37;;;4.80;99.90;;;5.69;100.00;98612.53;5087863;28;20453;-78
2021/10/16 04:45:13;;;;;;;5.90;2.40;;;4.70;99.90;;;5.67;100.00;98616.19;5086922;28;20465;-78
2021/10/16 04:47:42;;;;;;;14.17;3.27;;;4.60;99.90;;;5.61;100.00;98612.41;5085117;28;20438;-78
2021/10/16 04:50:13;;;;;;;5.07;2.63;;;4.60;99.90;;;5.63;100.00;98612.25;5077654;28;20531;-78
2021/10/16 04:52:41;;;;;;;6.10;3.33;;;4.70;99.90;;;5.63;100.00;98609.66;5078823;28;20841;-78
2021/10/16 04:55:10;;;;;;;2.83;2.40;;;4.80;99.90;;;5.63;100.00;98609.66;5078479;28;20511;-79
2021/10/16 04:57:39;;;;;;;4.30;3.00;;;4.70;99.90;;;5.60;100.00;98613.38;5086016;28;20498;-78
2021/10/16 05:00:11;;;;;;;4.93;2.57;;;4.60;99.90;;;5.55;100.00;98608.59;5079431;28;20450;-78
2021/10/16 05:02:39;;;;;;;10.73;2.70;;;4.60;99.90;;;5.49;100.00;98609.16;5075094;28;20927;-78
2021/10/16 05:05:08;;;;;;;4.23;2.70;;;4.50;99.90;;;5.41;100.00;98614.25;5086941;28;20465;-78
2021/10/16 05:07:37;;;;;;;4.70;2.63;;;4.40;99.90;;;5.44;100.00;98613.97;5077661;28;20801;-78
2021/10/16 05:10:07;;;;;;;3.97;3.03;;;4.40;99.90;;;5.49;100.00;98603.16;5086476;28;20523;-78
2021/10/16 05:12:35;;;;;;;6.83;2.80;;;4.50;99.90;;;5.52;100.00;98613.25;5079772;28;20574;-78
2021/10/16 05:15:05;;;;;;;3.80;2.70;;;4.60;99.90;;;5.37;100.00;98614.66;5081963;28;20445;-78
2021/10/16 05:17:35;;;;;;;3.80;2.60;;;4.40;99.90;;;5.39;100.00;98612.75;5081040;28;20987;-78
2021/10/16 05:20:05;;;;;;;8.87;3.17;;;4.50;99.90;;;5.25;100.00;98611.41;5082938;28;20470;-78
2021/10/16 05:22:33;;;;;;;3.30;2.33;;;4.30;99.90;;;5.20;100.00;98618.78;5081954;28;20481;-78
2021/10/16 05:25:02;;;;;;;5.17;2.70;;;4.20;99.90;;;5.17;100.00;98606.13;5087690;28;20480;-78
2021/10/16 05:27:30;;;;;;;5.60;3.00;;;4.20;99.90;;;5.18;100.00;98605.13;5091406;28;20449;-78
2021/10/16 05:29:58;;;;;;;4.50;2.83;;;4.20;99.90;;;5.23;100.00;98609.91;5080166;28;20447;-77
2021/10/16 05:32:27;;;;;;;6.67;2.93;;;4.20;99.90;;;5.16;100.00;98614.84;5087149;28;20445;-78
2021/10/16 05:34:57;;;;;;;4.60;3.40;;;4.20;99.90;;;5.13;100.00;98612.53;5082547;28;20480;-78
2021/10/16 05:37:25;;;;;;;3.90;2.73;;;4.10;99.90;;;5.15;100.00;98615.78;5084434;28;20487;-78
2021/10/16 05:39:54;;;;;;;4.80;2.73;;;4.10;99.90;;;5.12;100.00;98618.66;5082538;28;20989;-78
2021/10/16 05:42:22;;;;;;;4.13;3.40;;;4.10;99.90;;;5.14;100.00;98614.16;5084954;28;20490;-78
2021/10/16 05:44:51;;;;;;;9.90;3.20;;;4.20;99.90;;;5.05;100.00;98620.16;5083953;28;20515;-78
2021/10/16 05:47:19;;;;;;;8.00;3.77;;;4.10;99.90;;;5.03;100.00;98627.28;5088139;28;20452;-78
2021/10/16 05:49:48;;;;;;;4.93;3.10;;;4.10;99.90;;;4.90;100.00;98630.13;5087910;28;20440;-78
2021/10/16 05:52:18;;;;;;;4.50;2.80;;;3.90;99.90;;;4.83;100.00;98642.00;5082750;28;20460;-78
2021/10/16 05:54:46;;;;;;;6.00;3.20;;;3.80;99.90;;;4.81;100.00;98638.72;5088475;28;20490;-78
2021/10/16 05:57:14;;;;;;;8.40;3.10;;;3.70;99.90;;;4.81;100.00;98640.50;5084174;28;21118;-78
2021/10/16 05:59:43;;;;;;;5.30;3.20;;;3.80;99.90;;;4.82;100.00;98639.56;5074463;28;20787;-78
2021/10/16 06:02:11;;;;;;;5.23;3.20;;;3.80;99.90;;;4.84;100.00;98635.03;5085757;28;22310;-78
2021/10/16 06:04:40;;;;;;;3.70;2.93;;;3.80;99.90;;;4.86;100.00;98633.94;5086950;28;20490;-78
2021/10/16 06:07:08;;;;;;;4.50;2.90;;;3.90;99.90;;;4.75;100.00;98634.09;5084880;28;20450;-78
2021/10/16 06:09:38;;;;;;;4.77;3.27;;;3.80;99.90;;;4.73;100.00;98637.75;5090921;28;20967;-77
2021/10/16 06:12:07;;;;;;;4.43;3.20;;;3.70;99.90;;;4.68;100.00;98637.38;5087263;28;20470;-78
2021/10/16 06:14:36;;;;;;;3.70;2.60;;;3.60;99.90;;;4.64;100.00;98636.00;5085733;28;20580;-78
2021/10/16 06:17:04;;;;;;;5.10;3.17;;;3.60;99.90;;;4.61;100.00;98641.44;5082435;28;20497;-78
2021/10/16 06:19:33;;;;;;;6.10;2.97;;;3.60;99.90;;;4.66;100.00;98645.25;5083098;28;20432;-78
2021/10/16 06:22:03;;;;;;;5.40;2.80;;;3.60;99.90;;;4.67;100.00;98644.31;5087630;28;20447;-78
2021/10/16 06:24:31;;;;;;;3.67;3.00;;;3.60;99.90;;;4.69;100.00;98644.16;5086527;28;20521;-78
2021/10/16 06:27:01;;;;;;;4.73;3.17;;;3.70;99.90;;;4.66;100.00;98647.84;5088266;28;20851;-78
2021/10/16 06:29:30;;;;;;;3.60;3.20;;;3.60;99.90;;;4.66;100.00;98649.63;5088295;28;20556;-78
2021/10/16 06:31:58;;;;;;;3.50;2.60;;;3.60;99.90;;;4.65;100.00;98646.19;5086837;28;20436;-78
2021/10/16 06:34:27;;;;;;;6.93;2.90;;;3.60;99.90;;;4.57;100.00;98649.50;5084788;28;20520;-78
2021/10/16 06:36:55;;;;;;;2.63;2.43;;;3.50;99.90;;;4.61;100.00;98651.81;5084977;28;20485;-78
2021/10/16 06:39:24;;;;;;;4.00;2.80;;;3.70;99.90;;;4.56;100.00;98654.78;5085521;28;20486;-78
2021/10/16 06:41:52;;;;;;;6.37;3.17;;;3.60;99.90;;;4.66;100.00;98655.63;5084925;28;20436;-78
2021/10/16 06:44:25;;;;;;;6.60;3.90;;;3.70;99.90;;;4.72;100.00;98659.47;5086192;28;21000;-78
2021/10/16 06:46:53;;;;;;;6.70;4.20;;;3.80;99.90;;;4.76;100.00;98665.97;5081114;28;20447;-78
2021/10/16 06:49:22;;;;;;;6.73;4.37;;;4.00;99.90;;;4.77;100.00;98670.22;5083877;28;20448;-78
2021/10/16 06:51:51;;;;;;;11.33;4.57;;;4.00;99.90;;;4.78;100.00;98671.88;5085939;28;20456;-78
2021/10/16 06:54:19;;;;;;;8.60;4.47;;;4.00;99.90;;;4.81;100.00;98661.22;5082460;28;20444;-78
2021/10/16 06:56:48;;;;;;;10.40;3.77;;;4.10;99.90;;;4.87;100.00;98668.44;5089993;28;20506;-77
2021/10/16 06:59:16;;;;;;;6.63;4.03;;;4.10;99.90;;;4.90;100.00;98669.00;5083920;28;20496;-78
2021/10/16 07:01:46;;;;;;;6.57;4.23;;;4.10;99.90;;;4.90;100.00;98663.00;5084757;28;20440;-78
2021/10/16 07:04:18;;;;;;;8.93;4.27;;;4.10;99.90;;;4.81;100.00;98671.59;5084610;28;20437;-78
2021/10/16 07:06:48;;;;;;;7.77;4.63;;;3.90;99.90;;;4.79;100.00;98673.50;5087368;28;20489;-78
2021/10/16 07:09:17;;;;;;;9.60;4.40;;;3.80;99.90;;;4.86;100.00;98667.63;5087329;28;20451;-78
2021/10/16 07:11:45;;;;;;;9.07;5.17;;;3.90;99.90;;;4.97;100.00;98671.84;5082919;28;20468;-78
2021/10/16 07:14:14;;;;;;;9.10;5.07;;;4.10;99.90;;;5.04;100.00;98675.53;5078402;28;20441;-78
2021/10/16 07:16:43;;;;;;;12.97;6.00;;;4.10;99.90;;;5.08;100.00;98677.72;5085946;28;20456;-78
2021/10/16 07:19:13;;;;;;;11.80;5.20;;;4.20;99.90;;;5.15;100.00;98675.41;5084156;28;20492;-78
2021/10/16 07:21:42;;;;;;;7.30;5.10;;;4.30;99.90;;;5.19;100.00;98679.38;5087009;28;20466;-79
2021/10/16 07:24:10;;;;;;;6.77;4.80;;;4.30;99.90;;;5.25;100.00;98683.16;5081778;28;20481;-78
2021/10/16 07:26:40;;;;;;;6.03;4.37;;;4.40;99.90;;;5.23;100.00;98683.31;5085087;28;20583;-78
2021/10/16 07:29:08;;;;;;;7.07;5.17;;;4.30;99.90;;;5.16;100.00;98687.41;5086304;28;20449;-79
2021/10/16 07:31:37;;;;;;;6.80;4.37;;;4.10;99.90;;;5.16;100.00;98686.59;5084463;28;20444;-78
2021/10/16 07:34:05;;;;;;;6.10;4.23;;;4.20;99.90;;;5.19;100.00;98694.09;5088471;28;20566;-78
2021/10/16 07:36:37;;;;;;;6.83;4.10;;;4.20;99.90;;;5.21;100.00;98690.41;5081981;28;20446;-78
2021/10/16 07:39:09;;;;;;;5.63;4.00;;;4.20;99.90;;;5.16;100.00;98690.00;5086613;28;20492;-78
2021/10/16 07:41:38;;;;;;;5.80;4.30;;;4.20;99.90;;;5.13;100.00;98695.47;5084205;28;20497;-78
2021/10/16 07:44:31;;;;;;;6.07;4.57;;;4.10;99.90;;;5.11;100.00;98697.38;5088181;28;20529;-79
2021/10/16 07:47:14;;;;;;;5.50;3.70;;;4.10;99.90;;;5.12;100.00;98701.59;5083521;28;20456;-78
2021/10/16 07:49:44;;;;;;;8.07;4.03;;;4.10;99.90;;;5.09;100.00;98701.88;5087597;28;20995;-78
2021/10/16 07:52:14;;;;;;;7.37;3.90;;;4.10;99.90;;;5.05;100.00;98703.09;5087709;28;20510;-78
2021/10/16 07:54:42;;;;;;;5.53;3.90;;;4.10;99.90;;;5.06;100.00;98699.56;5086348;28;20442;-78
2021/10/16 07:57:49;;;;;;;7.40;4.43;;;4.10;99.90;;;4.99;100.00;98695.88;5090328;28;20450;-79
2021/10/16 08:00:18;;;;;;;5.63;3.80;;;4.00;99.90;;;5.03;100.00;98698.03;5087631;28;20530;-78
2021/10/16 08:02:47;;;;;;;6.30;3.90;;;4.10;99.90;;;5.05;100.00;98696.16;5091329;28;20487;-79
2021/10/16 08:05:16;;;;;;;8.40;4.30;;;4.10;99.90;;;5.10;100.00;98695.75;5087518;28;21068;-78
2021/10/16 08:07:46;;;;;;;10.03;5.10;;;4.20;99.90;;;5.14;100.00;98697.09;5088839;28;20904;-77
2021/10/16 08:10:15;;;;;;;8.50;4.07;;;4.20;99.90;;;5.21;100.00;98702.53;5089085;28;20954;-78
2021/10/16 08:12:44;;;;;;;6.60;4.93;;;4.40;99.90;;;5.21;100.00;98703.38;5086972;28;20470;-78
2021/10/16 08:15:14;;;;;;;6.63;4.43;;;4.30;99.90;;;5.26;100.00;98698.59;5084474;28;20509;-78
2021/10/16 08:17:42;;;;;;;7.23;4.70;;;4.40;99.90;;;5.28;100.00;98701.03;5087821;28;20500;-78
2021/10/16 08:20:12;;;;;;;9.13;4.77;;;4.40;99.90;;;5.28;100.00;98701.88;5082788;28;20553;-78
2021/10/16 08:22:42;;;;;;;6.43;4.30;;;4.40;99.90;;;5.33;100.00;98691.91;5088550;28;20998;-78
2021/10/16 08:25:14;;;;;;;7.80;4.80;;;4.40;99.90;;;5.33;100.00;98697.09;5088397;28;20458;-78
2021/10/16 08:27:42;;;;;;;6.33;4.20;;;4.40;99.90;;;5.42;100.00;98688.47;5085372;28;20449;-78
2021/10/16 08:30:11;;;;;;;5.53;4.10;;;4.50;99.90;;;5.51;100.00;98695.44;5082908;28;21136;-78
2021/10/16 08:32:40;;;;;;;8.23;4.60;;;4.60;99.90;;;5.58;100.00;98693.09;5089928;28;20466;-78
2021/10/16 08:35:10;;;;;;;9.70;4.17;;;4.70;99.90;;;5.65;100.00;98690.78;5088066;28;20440;-78
2021/10/16 08:37:39;;;;;;;8.10;4.30;;;4.80;99.90;;;5.68;100.00;98696.50;5082018;28;20495;-78
2021/10/16 08:40:08;;;;;;;8.80;4.50;;;4.80;99.90;;;5.74;100.00;98695.94;5085484;28;21412;-78
2021/10/16 08:42:39;;;;;;;7.47;4.70;;;4.90;99.90;;;5.78;100.00;98693.88;5084715;28;21192;-78
2021/10/16 08:45:08;;;;;;;10.97;5.20;;;4.90;99.90;;;5.81;100.00;98689.22;5083273;28;20459;-78
2021/10/16 08:47:39;;;;;;;8.93;4.97;;;4.90;99.90;;;5.90;100.00;98695.38;5084563;28;20458;-78
2021/10/16 08:50:11;;;;;;;9.13;4.93;;;5.00;99.90;;;5.94;100.00;98699.31;5088090;28;20439;-78
2021/10/16 08:52:40;;;;;;;10.57;5.10;;;5.10;99.90;;;5.97;100.00;98701.66;5087093;28;20837;-78
2021/10/16 08:55:10;;;;;;;8.00;4.80;;;5.10;99.90;;;6.07;100.00;98702.44;5087619;28;20439;-78
2021/10/16 08:57:42;;;;;;;5.47;4.27;;;5.20;99.90;;;6.15;100.00;98699.91;5088215;28;20436;-79
2021/10/16 09:00:49;;;;;;;6.73;4.33;;;5.40;99.90;;;6.20;100.00;98707.28;5086801;28;20498;-78
2021/10/16 09:03:29;;;;;;;7.17;5.10;;;5.30;99.90;;;6.23;100.00;98705.22;5088614;28;21011;-79
2021/10/16 09:06:13;;;;;;;10.20;4.70;;;5.40;99.90;;;6.28;100.00;98700.41;5087322;28;20919;-78
2021/10/16 09:08:47;;;;;;;9.33;4.20;;;5.40;99.90;;;6.37;100.00;98701.34;5088065;28;20508;-79
2021/10/16 09:11:23;;;;;;;4.97;4.17;;;5.50;99.90;;;6.41;100.00;98700.91;5085564;28;20488;-79
2021/10/16 09:13:56;;;;;;;5.70;3.40;;;5.60;99.90;;;6.46;100.00;98701.28;5083125;28;20432;-78
2021/10/16 09:16:32;;;;;;;11.43;4.00;;;5.60;99.90;;;6.51;100.00;98695.66;5085292;28;20447;-79
2021/10/16 09:19:15;;;;;;;6.13;3.80;;;5.60;99.90;;;6.59;100.00;98703.56;5084517;28;20474;-79
2021/10/16 09:21:50;;;;;;;6.17;3.60;;;5.70;99.90;;;6.67;100.00;98695.00;5086579;28;20505;-79
2021/10/16 09:24:22;;;;;;;8.50;4.03;;;5.80;99.90;;;6.76;100.00;98694.16;5087559;28;20982;-79
2021/10/16 09:26:54;;;;;;;4.83;3.70;;;5.90;99.90;;;6.84;100.00;98687.22;5087439;28;20608;-79
2021/10/16 09:29:28;;;;;;;5.33;3.87;;;6.00;99.90;;;6.93;100.00;98685.53;5090900;28;20509;-79
2021/10/16 09:32:01;;;;;;;7.13;3.60;;;6.10;99.90;;;7.03;100.00;98678.47;5086799;28;20826;-78
2021/10/16 09:34:33;;;;;;;7.60;3.67;;;6.20;99.90;;;7.08;100.00;98687.47;5079024;28;20915;-79
2021/10/16 09:37:04;;;;;;;6.30;3.40;;;6.30;99.90;;;7.17;100.00;98675.34;5082646;28;20925;-79
2021/10/16 09:39:35;;;;;;;6.63;2.90;;;6.40;99.90;;;7.26;100.00;98676.22;5085132;28;20494;-78
2021/10/16 09:42:05;;;;;;;6.00;2.20;;;6.50;99.90;;;7.34;100.00;98674.53;5083677;28;20781;-79
2021/10/16 09:44:38;;;;;;;11.80;3.10;;;6.60;99.90;;;7.40;100.00;98673.91;5083761;28;20526;-79
2021/10/16 09:47:11;;;;;;;11.70;2.77;;;6.60;99.90;;;7.46;100.00;98670.69;5083336;28;20452;-79
2021/10/16 09:49:42;;;;;;;4.27;2.20;;;6.70;99.90;;;7.54;100.00;98669.94;5085282;28;20928;-79
2021/10/16 09:52:13;;;;;;;5.77;2.30;;;6.80;99.90;;;7.60;100.00;98667.53;5087368;28;20447;-79
2021/10/16 09:54:44;;;;;;;5.23;2.07;;;6.90;99.90;;;7.66;100.00;98662.72;5084712;28;20459;-79
2021/10/16 09:57:16;;;;;;;9.90;2.83;;;6.90;99.90;;;7.72;100.00;98662.91;5081746;28;20456;-79
2021/10/16 09:59:46;;;;;;;3.40;2.10;;;7.00;99.90;;;7.77;100.00;98665.06;5081331;28;20532;-79
2021/10/16 10:02:16;;;;;;;16.63;3.07;;;7.00;99.90;;;7.84;100.00;98655.66;5086495;28;20435;-79
2021/10/16 10:04:47;;;;;;;12.13;2.57;;;7.10;99.90;;;7.88;100.00;98651.78;5087305;28;20435;-79
2021/10/16 10:07:20;;;;;;;16.33;2.67;;;7.10;99.90;;;7.95;100.00;98653.59;5082918;28;20463;-79
2021/10/16 10:09:49;;;;;;;10.57;2.70;;;7.20;99.90;;;8.02;100.00;98653.78;5089319;28;20502;-79
2021/10/16 10:12:19;;;;;;;10.67;2.47;;;7.30;99.90;;;8.06;100.00;98660.31;5083647;28;20471;-79
2021/10/16 10:14:50;;;;;;;7.10;2.30;;;7.30;99.90;;;8.10;100.00;98656.44;5083195;28;20452;-79
2021/10/16 10:17:27;;;;;;;11.60;2.63;;;7.40;99.90;;;8.16;100.00;98661.00;5082429;28;20508;-79
2021/10/16 10:20:02;;;;;;;12.23;2.40;;;7.40;99.90;;;8.22;100.00;98655.19;5085973;28;20494;-79
2021/10/16 10:22:34;;;;;;;7.80;2.60;;;7.50;99.90;;;8.28;100.00;98653.72;5086083;28;20447;-79
2021/10/16 10:25:13;;;;;;;7.63;2.50;;;7.60;99.90;;;8.32;100.00;98660.31;5085514;28;20492;-79
2021/10/16 10:27:45;;;;;;;10.60;2.00;;;7.60;99.90;;;8.37;100.00;98653.63;5086565;28;20874;-79
2021/10/16 10:30:45;;;;;;;5.87;2.17;;;7.70;99.90;;;8.42;100.00;98658.38;5085973;28;20854;-79
2021/10/16 10:33:22;;;;;;;7.57;3.17;;;7.80;99.90;;;8.48;100.00;98653.34;5082283;28;20495;-80
2021/10/16 10:36:23;;;;;;;12.30;2.30;;;7.80;99.90;;;8.54;100.00;98644.88;5085029;28;20898;-79
2021/10/16 10:38:52;;;;;;;8.10;2.30;;;7.90;99.90;;;8.59;100.00;98647.84;5080204;28;20444;-79